sensor_id;sensor_type;location;lat;lon;timestamp;P1;durP1;ratioP1;P2;durP2;ratioP2
78053;SDS011;67726;45.636;11.752;2023-07-30T00:01:33;12.18;;;8.30;;
78053;SDS011;67726;45.636;11.752;2023-07-30T00:03:59;15.20;;;8.55;;
78053;SDS011;67726;45.636;11.752;2023-07-30T00:06:25;13.23;;;7.93;;
78053;SDS011;67726;45.636;11.752;2023-07-30T00:08:50;14.25;;;8.75;;
78053;SDS011;67726;45.636;11.752;2023-07-30T00:11:16;14.40;;;8.83;;
78053;SDS011;67726;45.636;11.752;2023-07-30T00:13:42;12.50;;;8.77;;
78053;SDS011;67726;45.636;11.752;2023-07-30T00:16:07;16.40;;;9.50;;
78053;SDS011;67726;45.636;11.752;2023-07-30T00:18:33;14.85;;;9.13;;
78053;SDS011;67726;45.636;11.752;2023-07-30T00:20:59;15.18;;;8.90;;
78053;SDS011;67726;45.636;11.752;2023-07-30T00:23:26;15.47;;;8.87;;
78053;SDS011;67726;45.636;11.752;2023-07-30T00:25:51;14.25;;;8.68;;
78053;SDS011;67726;45.636;11.752;2023-07-30T00:28:17;13.00;;;8.73;;
78053;SDS011;67726;45.636;11.752;2023-07-30T00:30:43;14.13;;;8.70;;
78053;SDS011;67726;45.636;11.752;2023-07-30T00:33:08;14.80;;;9.50;;
78053;SDS011;67726;45.636;11.752;2023-07-30T00:35:34;14.00;;;9.40;;
78053;SDS011;67726;45.636;11.752;2023-07-30T00:37:59;14.27;;;9.70;;
78053;SDS011;67726;45.636;11.752;2023-07-30T00:40:25;17.63;;;9.97;;
78053;SDS011;67726;45.636;11.752;2023-07-30T00:42:51;19.98;;;11.30;;
78053;SDS011;67726;45.636;11.752;2023-07-30T00:45:16;16.37;;;10.43;;
78053;SDS011;67726;45.636;11.752;2023-07-30T00:47:42;15.52;;;10.77;;
78053;SDS011;67726;45.636;11.752;2023-07-30T00:50:08;15.35;;;10.93;;
78053;SDS011;67726;45.636;11.752;2023-07-30T00:52:37;14.93;;;11.17;;
78053;SDS011;67726;45.636;11.752;2023-07-30T00:55:04;16.77;;;11.20;;
78053;SDS011;67726;45.636;11.752;2023-07-30T00:57:31;17.33;;;12.52;;
78053;SDS011;67726;45.636;11.752;2023-07-30T00:59:57;17.77;;;13.40;;
78053;SDS011;67726;45.636;11.752;2023-07-30T01:02:23;23.13;;;14.95;;
78053;SDS011;67726;45.636;11.752;2023-07-30T01:04:49;22.37;;;14.80;;
78053;SDS011;67726;45.636;11.752;2023-07-30T01:07:15;20.98;;;15.00;;
78053;SDS011;67726;45.636;11.752;2023-07-30T01:09:41;21.73;;;15.03;;
78053;SDS011;67726;45.636;11.752;2023-07-30T01:12:07;25.15;;;17.25;;
78053;SDS011;67726;45.636;11.752;2023-07-30T01:14:33;26.50;;;17.83;;
78053;SDS011;67726;45.636;11.752;2023-07-30T01:17:02;28.58;;;20.05;;
78053;SDS011;67726;45.636;11.752;2023-07-30T01:19:29;32.22;;;21.48;;
78053;SDS011;67726;45.636;11.752;2023-07-30T01:21:55;32.43;;;22.70;;
78053;SDS011;67726;45.636;11.752;2023-07-30T01:24:21;42.85;;;26.65;;
78053;SDS011;67726;45.636;11.752;2023-07-30T01:26:55;43.63;;;29.03;;
78053;SDS011;67726;45.636;11.752;2023-07-30T01:29:32;57.23;;;31.70;;
78053;SDS011;67726;45.636;11.752;2023-07-30T01:32:06;50.70;;;33.50;;
78053;SDS011;67726;45.636;11.752;2023-07-30T01:34:36;54.10;;;35.85;;
78053;SDS011;67726;45.636;11.752;2023-07-30T01:37:08;57.83;;;35.95;;
78053;SDS011;67726;45.636;11.752;2023-07-30T01:39:37;71.60;;;39.05;;
78053;SDS011;67726;45.636;11.752;2023-07-30T01:42:04;68.97;;;38.00;;
78053;SDS011;67726;45.636;11.752;2023-07-30T01:44:30;67.75;;;37.33;;
78053;SDS011;67726;45.636;11.752;2023-07-30T01:46:56;76.37;;;36.37;;
78053;SDS011;67726;45.636;11.752;2023-07-30T01:49:21;65.53;;;34.50;;
78053;SDS011;67726;45.636;11.752;2023-07-30T01:51:48;67.13;;;37.67;;
78053;SDS011;67726;45.636;11.752;2023-07-30T01:54:14;51.45;;;32.75;;
78053;SDS011;67726;45.636;11.752;2023-07-30T01:56:40;58.95;;;33.15;;
78053;SDS011;67726;45.636;11.752;2023-07-30T01:59:05;57.47;;;33.60;;
78053;SDS011;67726;45.636;11.752;2023-07-30T02:01:31;83.38;;;35.25;;
78053;SDS011;67726;45.636;11.752;2023-07-30T02:03:56;62.57;;;32.63;;
78053;SDS011;67726;45.636;11.752;2023-07-30T02:06:22;47.90;;;30.60;;
78053;SDS011;67726;45.636;11.752;2023-07-30T02:08:48;45.67;;;29.97;;
78053;SDS011;67726;45.636;11.752;2023-07-30T02:11:13;44.17;;;28.63;;
78053;SDS011;67726;45.636;11.752;2023-07-30T02:13:39;53.78;;;27.95;;
78053;SDS011;67726;45.636;11.752;2023-07-30T02:16:04;44.73;;;29.13;;
78053;SDS011;67726;45.636;11.752;2023-07-30T02:18:30;42.85;;;27.35;;
78053;SDS011;67726;45.636;11.752;2023-07-30T02:20:56;60.63;;;29.13;;
78053;SDS011;67726;45.636;11.752;2023-07-30T02:23:21;51.92;;;28.85;;
78053;SDS011;67726;45.636;11.752;2023-07-30T02:25:47;73.37;;;31.87;;
78053;SDS011;67726;45.636;11.752;2023-07-30T02:28:13;53.70;;;29.70;;
78053;SDS011;67726;45.636;11.752;2023-07-30T02:30:38;53.67;;;29.87;;
78053;SDS011;67726;45.636;11.752;2023-07-30T02:33:04;62.13;;;32.30;;
78053;SDS011;67726;45.636;11.752;2023-07-30T02:35:30;48.00;;;29.90;;
78053;SDS011;67726;45.636;11.752;2023-07-30T02:37:55;44.57;;;29.53;;
78053;SDS011;67726;45.636;11.752;2023-07-30T02:40:21;43.60;;;29.77;;
78053;SDS011;67726;45.636;11.752;2023-07-30T02:42:47;52.97;;;30.70;;
78053;SDS011;67726;45.636;11.752;2023-07-30T02:45:12;49.63;;;30.83;;
78053;SDS011;67726;45.636;11.752;2023-07-30T02:47:38;65.40;;;32.92;;
78053;SDS011;67726;45.636;11.752;2023-07-30T02:50:04;46.60;;;30.40;;
78053;SDS011;67726;45.636;11.752;2023-07-30T02:52:31;47.22;;;28.70;;
78053;SDS011;67726;45.636;11.752;2023-07-30T02:54:56;45.63;;;30.07;;
78053;SDS011;67726;45.636;11.752;2023-07-30T02:57:22;43.15;;;28.13;;
78053;SDS011;67726;45.636;11.752;2023-07-30T02:59:48;34.67;;;23.53;;
78053;SDS011;67726;45.636;11.752;2023-07-30T03:02:13;28.95;;;20.80;;
78053;SDS011;67726;45.636;11.752;2023-07-30T03:04:39;28.98;;;20.58;;
78053;SDS011;67726;45.636;11.752;2023-07-30T03:07:05;34.57;;;20.53;;
78053;SDS011;67726;45.636;11.752;2023-07-30T03:09:31;30.88;;;21.85;;
78053;SDS011;67726;45.636;11.752;2023-07-30T03:11:57;31.63;;;21.20;;
78053;SDS011;67726;45.636;11.752;2023-07-30T03:14:24;33.47;;;21.83;;
78053;SDS011;67726;45.636;11.752;2023-07-30T03:16:49;34.10;;;22.87;;
78053;SDS011;67726;45.636;11.752;2023-07-30T03:19:15;29.60;;;21.63;;
78053;SDS011;67726;45.636;11.752;2023-07-30T03:21:41;28.07;;;21.03;;
78053;SDS011;67726;45.636;11.752;2023-07-30T03:24:06;29.63;;;19.77;;
78053;SDS011;67726;45.636;11.752;2023-07-30T03:26:32;28.40;;;19.40;;
78053;SDS011;67726;45.636;11.752;2023-07-30T03:28:58;27.23;;;19.70;;
78053;SDS011;67726;45.636;11.752;2023-07-30T03:31:24;30.03;;;18.93;;
78053;SDS011;67726;45.636;11.752;2023-07-30T03:33:49;27.75;;;18.85;;
78053;SDS011;67726;45.636;11.752;2023-07-30T03:36:15;26.30;;;19.00;;
78053;SDS011;67726;45.636;11.752;2023-07-30T03:38:41;26.17;;;19.20;;
78053;SDS011;67726;45.636;11.752;2023-07-30T03:41:07;27.30;;;19.83;;
78053;SDS011;67726;45.636;11.752;2023-07-30T03:43:34;24.27;;;17.73;;
78053;SDS011;67726;45.636;11.752;2023-07-30T03:46:00;22.17;;;16.40;;
78053;SDS011;67726;45.636;11.752;2023-07-30T03:48:26;20.92;;;16.05;;
78053;SDS011;67726;45.636;11.752;2023-07-30T03:50:52;19.60;;;15.15;;
78053;SDS011;67726;45.636;11.752;2023-07-30T03:53:18;21.20;;;14.93;;
78053;SDS011;67726;45.636;11.752;2023-07-30T03:55:44;22.40;;;14.90;;
78053;SDS011;67726;45.636;11.752;2023-07-30T03:58:09;17.50;;;12.23;;
78053;SDS011;67726;45.636;11.752;2023-07-30T04:00:35;16.88;;;9.90;;
78053;SDS011;67726;45.636;11.752;2023-07-30T04:03:01;10.40;;;7.40;;
78053;SDS011;67726;45.636;11.752;2023-07-30T04:05:26;10.23;;;6.18;;
78053;SDS011;67726;45.636;11.752;2023-07-30T04:07:52;9.30;;;6.30;;
78053;SDS011;67726;45.636;11.752;2023-07-30T04:10:18;8.80;;;5.68;;
78053;SDS011;67726;45.636;11.752;2023-07-30T04:12:44;10.60;;;5.73;;
78053;SDS011;67726;45.636;11.752;2023-07-30T04:15:10;10.38;;;5.85;;
78053;SDS011;67726;45.636;11.752;2023-07-30T04:17:36;10.03;;;5.53;;
78053;SDS011;67726;45.636;11.752;2023-07-30T04:20:02;9.57;;;5.88;;
78053;SDS011;67726;45.636;11.752;2023-07-30T04:22:29;9.85;;;6.78;;
78053;SDS011;67726;45.636;11.752;2023-07-30T04:24:55;9.75;;;5.80;;
78053;SDS011;67726;45.636;11.752;2023-07-30T04:27:21;7.97;;;4.72;;
78053;SDS011;67726;45.636;11.752;2023-07-30T04:29:47;7.87;;;4.77;;
78053;SDS011;67726;45.636;11.752;2023-07-30T04:32:12;7.43;;;3.80;;
78053;SDS011;67726;45.636;11.752;2023-07-30T04:34:38;8.27;;;3.53;;
78053;SDS011;67726;45.636;11.752;2023-07-30T04:37:04;6.22;;;2.90;;
78053;SDS011;67726;45.636;11.752;2023-07-30T04:39:31;6.82;;;3.50;;
78053;SDS011;67726;45.636;11.752;2023-07-30T04:41:57;5.40;;;2.97;;
78053;SDS011;67726;45.636;11.752;2023-07-30T04:44:23;6.25;;;3.40;;
78053;SDS011;67726;45.636;11.752;2023-07-30T04:46:49;5.63;;;3.20;;
78053;SDS011;67726;45.636;11.752;2023-07-30T04:49:14;8.38;;;4.22;;
78053;SDS011;67726;45.636;11.752;2023-07-30T04:51:40;7.80;;;4.90;;
78053;SDS011;67726;45.636;11.752;2023-07-30T04:54:06;9.07;;;6.13;;
78053;SDS011;67726;45.636;11.752;2023-07-30T04:56:31;11.27;;;6.93;;
78053;SDS011;67726;45.636;11.752;2023-07-30T04:58:57;11.70;;;6.50;;
78053;SDS011;67726;45.636;11.752;2023-07-30T05:01:26;10.48;;;6.70;;
78053;SDS011;67726;45.636;11.752;2023-07-30T05:03:52;10.80;;;6.90;;
78053;SDS011;67726;45.636;11.752;2023-07-30T05:06:18;10.82;;;6.80;;
78053;SDS011;67726;45.636;11.752;2023-07-30T05:08:43;10.07;;;7.30;;
78053;SDS011;67726;45.636;11.752;2023-07-30T05:11:09;11.20;;;7.40;;
78053;SDS011;67726;45.636;11.752;2023-07-30T05:13:35;11.50;;;8.13;;
78053;SDS011;67726;45.636;11.752;2023-07-30T05:16:00;11.27;;;8.13;;
78053;SDS011;67726;45.636;11.752;2023-07-30T05:18:27;10.73;;;7.10;;
78053;SDS011;67726;45.636;11.752;2023-07-30T05:20:53;10.33;;;6.53;;
78053;SDS011;67726;45.636;11.752;2023-07-30T05:23:19;10.38;;;6.75;;
78053;SDS011;67726;45.636;11.752;2023-07-30T05:25:44;8.70;;;5.93;;
78053;SDS011;67726;45.636;11.752;2023-07-30T05:28:10;8.57;;;5.33;;
78053;SDS011;67726;45.636;11.752;2023-07-30T05:30:36;7.97;;;5.85;;
78053;SDS011;67726;45.636;11.752;2023-07-30T05:33:02;9.03;;;5.40;;
78053;SDS011;67726;45.636;11.752;2023-07-30T05:35:27;8.90;;;4.90;;
78053;SDS011;67726;45.636;11.752;2023-07-30T05:37:53;7.67;;;5.20;;
78053;SDS011;67726;45.636;11.752;2023-07-30T05:40:19;9.18;;;4.03;;
78053;SDS011;67726;45.636;11.752;2023-07-30T05:42:44;7.87;;;3.70;;
78053;SDS011;67726;45.636;11.752;2023-07-30T05:45:10;8.23;;;3.47;;
78053;SDS011;67726;45.636;11.752;2023-07-30T05:47:36;5.60;;;3.60;;
78053;SDS011;67726;45.636;11.752;2023-07-30T05:50:02;6.30;;;3.63;;
78053;SDS011;67726;45.636;11.752;2023-07-30T05:52:28;6.18;;;2.72;;
78053;SDS011;67726;45.636;11.752;2023-07-30T05:54:54;5.20;;;2.90;;
78053;SDS011;67726;45.636;11.752;2023-07-30T05:57:19;4.97;;;2.50;;
78053;SDS011;67726;45.636;11.752;2023-07-30T05:59:45;4.67;;;2.10;;
78053;SDS011;67726;45.636;11.752;2023-07-30T06:02:10;4.30;;;2.15;;
78053;SDS011;67726;45.636;11.752;2023-07-30T06:04:36;4.97;;;2.27;;
78053;SDS011;67726;45.636;11.752;2023-07-30T06:07:02;4.88;;;2.28;;
78053;SDS011;67726;45.636;11.752;2023-07-30T06:09:28;6.27;;;1.90;;
78053;SDS011;67726;45.636;11.752;2023-07-30T06:11:55;6.13;;;1.80;;
78053;SDS011;67726;45.636;11.752;2023-07-30T06:14:22;5.32;;;1.50;;
78053;SDS011;67726;45.636;11.752;2023-07-30T06:16:49;5.15;;;1.70;;
78053;SDS011;67726;45.636;11.752;2023-07-30T06:19:15;5.70;;;1.63;;
78053;SDS011;67726;45.636;11.752;2023-07-30T06:21:40;3.47;;;1.60;;
78053;SDS011;67726;45.636;11.752;2023-07-30T06:24:06;4.20;;;1.47;;
78053;SDS011;67726;45.636;11.752;2023-07-30T06:26:32;4.03;;;1.60;;
78053;SDS011;67726;45.636;11.752;2023-07-30T06:28:57;3.57;;;1.30;;
78053;SDS011;67726;45.636;11.752;2023-07-30T06:31:23;3.45;;;1.40;;
78053;SDS011;67726;45.636;11.752;2023-07-30T06:33:49;4.20;;;1.57;;
78053;SDS011;67726;45.636;11.752;2023-07-30T06:36:15;4.72;;;1.50;;
78053;SDS011;67726;45.636;11.752;2023-07-30T06:38:40;3.50;;;1.50;;
78053;SDS011;67726;45.636;11.752;2023-07-30T06:41:06;3.93;;;1.50;;
78053;SDS011;67726;45.636;11.752;2023-07-30T06:43:32;3.53;;;1.40;;
78053;SDS011;67726;45.636;11.752;2023-07-30T06:45:57;3.63;;;1.30;;
78053;SDS011;67726;45.636;11.752;2023-07-30T06:48:23;4.45;;;1.20;;
78053;SDS011;67726;45.636;11.752;2023-07-30T06:50:49;3.57;;;1.33;;
78053;SDS011;67726;45.636;11.752;2023-07-30T06:53:14;4.03;;;1.40;;
78053;SDS011;67726;45.636;11.752;2023-07-30T06:55:40;3.47;;;1.20;;
78053;SDS011;67726;45.636;11.752;2023-07-30T06:58:06;2.90;;;1.17;;
78053;SDS011;67726;45.636;11.752;2023-07-30T07:00:32;4.00;;;1.13;;
78053;SDS011;67726;45.636;11.752;2023-07-30T07:02:57;3.05;;;1.17;;
78053;SDS011;67726;45.636;11.752;2023-07-30T07:05:23;2.90;;;1.20;;
78053;SDS011;67726;45.636;11.752;2023-07-30T07:07:49;3.72;;;1.20;;
78053;SDS011;67726;45.636;11.752;2023-07-30T07:10:15;3.27;;;1.00;;
78053;SDS011;67726;45.636;11.752;2023-07-30T07:12:40;4.77;;;1.30;;
78053;SDS011;67726;45.636;11.752;2023-07-30T07:15:06;2.72;;;1.10;;
78053;SDS011;67726;45.636;11.752;2023-07-30T07:17:32;3.38;;;1.15;;
78053;SDS011;67726;45.636;11.752;2023-07-30T07:19:58;3.10;;;1.20;;
78053;SDS011;67726;45.636;11.752;2023-07-30T07:22:24;2.88;;;0.90;;
78053;SDS011;67726;45.636;11.752;2023-07-30T07:24:53;3.70;;;0.90;;
78053;SDS011;67726;45.636;11.752;2023-07-30T07:27:19;2.63;;;0.90;;
78053;SDS011;67726;45.636;11.752;2023-07-30T07:29:44;2.42;;;0.80;;
78053;SDS011;67726;45.636;11.752;2023-07-30T07:32:10;5.93;;;0.93;;
78053;SDS011;67726;45.636;11.752;2023-07-30T07:34:36;2.38;;;0.82;;
78053;SDS011;67726;45.636;11.752;2023-07-30T07:37:02;2.50;;;0.87;;
78053;SDS011;67726;45.636;11.752;2023-07-30T07:39:28;3.25;;;1.02;;
78053;SDS011;67726;45.636;11.752;2023-07-30T07:41:54;3.08;;;0.80;;
78053;SDS011;67726;45.636;11.752;2023-07-30T07:44:20;2.20;;;0.73;;
78053;SDS011;67726;45.636;11.752;2023-07-30T07:46:47;2.53;;;1.00;;
78053;SDS011;67726;45.636;11.752;2023-07-30T07:49:13;3.00;;;0.80;;
78053;SDS011;67726;45.636;11.752;2023-07-30T07:51:38;3.10;;;1.00;;
78053;SDS011;67726;45.636;11.752;2023-07-30T07:54:04;3.17;;;0.80;;
78053;SDS011;67726;45.636;11.752;2023-07-30T07:56:30;2.73;;;0.80;;
78053;SDS011;67726;45.636;11.752;2023-07-30T07:58:56;2.47;;;0.90;;
78053;SDS011;67726;45.636;11.752;2023-07-30T08:01:22;4.10;;;0.90;;
78053;SDS011;67726;45.636;11.752;2023-07-30T08:03:48;3.13;;;0.90;;
78053;SDS011;67726;45.636;11.752;2023-07-30T08:06:14;2.70;;;0.90;;
78053;SDS011;67726;45.636;11.752;2023-07-30T08:08:39;2.93;;;0.90;;
78053;SDS011;67726;45.636;11.752;2023-07-30T08:11:08;2.25;;;0.90;;
78053;SDS011;67726;45.636;11.752;2023-07-30T08:13:34;2.85;;;1.00;;
78053;SDS011;67726;45.636;11.752;2023-07-30T08:16:00;2.70;;;1.00;;
78053;SDS011;67726;45.636;11.752;2023-07-30T08:18:27;2.67;;;0.83;;
78053;SDS011;67726;45.636;11.752;2023-07-30T08:20:53;4.40;;;1.02;;
78053;SDS011;67726;45.636;11.752;2023-07-30T08:23:19;2.55;;;0.90;;
78053;SDS011;67726;45.636;11.752;2023-07-30T08:25:44;4.03;;;0.95;;
78053;SDS011;67726;45.636;11.752;2023-07-30T08:28:10;2.50;;;0.90;;
78053;SDS011;67726;45.636;11.752;2023-07-30T08:30:36;1.77;;;0.70;;
78053;SDS011;67726;45.636;11.752;2023-07-30T08:33:01;2.03;;;0.80;;
78053;SDS011;67726;45.636;11.752;2023-07-30T08:35:27;2.13;;;0.70;;
78053;SDS011;67726;45.636;11.752;2023-07-30T08:37:53;2.90;;;0.90;;
78053;SDS011;67726;45.636;11.752;2023-07-30T08:40:21;2.00;;;0.80;;
78053;SDS011;67726;45.636;11.752;2023-07-30T08:42:50;2.53;;;0.70;;
78053;SDS011;67726;45.636;11.752;2023-07-30T08:45:17;2.22;;;0.80;;
78053;SDS011;67726;45.636;11.752;2023-07-30T08:47:43;2.45;;;0.93;;
78053;SDS011;67726;45.636;11.752;2023-07-30T08:50:10;2.23;;;0.80;;
78053;SDS011;67726;45.636;11.752;2023-07-30T08:52:36;2.30;;;1.00;;
78053;SDS011;67726;45.636;11.752;2023-07-30T08:55:02;3.00;;;0.95;;
78053;SDS011;67726;45.636;11.752;2023-07-30T08:57:29;2.50;;;0.80;;
78053;SDS011;67726;45.636;11.752;2023-07-30T09:00:05;3.67;;;0.90;;
78053;SDS011;67726;45.636;11.752;2023-07-30T09:05:14;2.95;;;0.90;;
78053;SDS011;67726;45.636;11.752;2023-07-30T09:07:40;2.55;;;0.90;;
78053;SDS011;67726;45.636;11.752;2023-07-30T09:10:06;2.77;;;0.93;;
78053;SDS011;67726;45.636;11.752;2023-07-30T09:12:33;2.38;;;0.90;;
78053;SDS011;67726;45.636;11.752;2023-07-30T09:15:00;2.28;;;0.80;;
78053;SDS011;67726;45.636;11.752;2023-07-30T09:17:30;2.70;;;0.90;;
78053;SDS011;67726;45.636;11.752;2023-07-30T09:19:58;2.83;;;1.00;;
78053;SDS011;67726;45.636;11.752;2023-07-30T09:22:31;3.07;;;0.97;;
78053;SDS011;67726;45.636;11.752;2023-07-30T09:25:04;2.88;;;1.17;;
78053;SDS011;67726;45.636;11.752;2023-07-30T09:27:31;3.08;;;1.02;;
78053;SDS011;67726;45.636;11.752;2023-07-30T09:29:58;3.78;;;1.30;;
78053;SDS011;67726;45.636;11.752;2023-07-30T09:32:26;2.75;;;0.90;;
78053;SDS011;67726;45.636;11.752;2023-07-30T09:34:52;3.27;;;1.20;;
78053;SDS011;67726;45.636;11.752;2023-07-30T09:37:18;2.97;;;1.10;;
78053;SDS011;67726;45.636;11.752;2023-07-30T09:39:43;2.83;;;1.00;;
78053;SDS011;67726;45.636;11.752;2023-07-30T09:42:12;3.13;;;1.00;;
78053;SDS011;67726;45.636;11.752;2023-07-30T09:44:38;2.88;;;1.10;;
78053;SDS011;67726;45.636;11.752;2023-07-30T09:47:09;4.60;;;1.40;;
78053;SDS011;67726;45.636;11.752;2023-07-30T09:49:36;6.00;;;1.30;;
78053;SDS011;67726;45.636;11.752;2023-07-30T09:52:03;4.10;;;1.30;;
78053;SDS011;67726;45.636;11.752;2023-07-30T09:54:30;2.67;;;1.20;;
78053;SDS011;67726;45.636;11.752;2023-07-30T09:56:57;4.10;;;1.50;;
78053;SDS011;67726;45.636;11.752;2023-07-30T09:59:23;4.10;;;1.50;;
78053;SDS011;67726;45.636;11.752;2023-07-30T10:01:49;3.95;;;1.17;;
78053;SDS011;67726;45.636;11.752;2023-07-30T10:04:17;3.50;;;1.10;;
78053;SDS011;67726;45.636;11.752;2023-07-30T10:06:46;3.45;;;1.23;;
78053;SDS011;67726;45.636;11.752;2023-07-30T10:09:14;3.77;;;1.23;;
78053;SDS011;67726;45.636;11.752;2023-07-30T10:11:42;3.78;;;1.40;;
78053;SDS011;67726;45.636;11.752;2023-07-30T10:14:10;3.67;;;1.40;;
78053;SDS011;67726;45.636;11.752;2023-07-30T10:16:37;3.35;;;1.17;;
78053;SDS011;67726;45.636;11.752;2023-07-30T10:19:02;4.53;;;1.50;;
78053;SDS011;67726;45.636;11.752;2023-07-30T10:21:28;4.43;;;1.50;;
78053;SDS011;67726;45.636;11.752;2023-07-30T10:24:03;4.30;;;1.40;;
78053;SDS011;67726;45.636;11.752;2023-07-30T10:26:31;4.00;;;1.30;;
78053;SDS011;67726;45.636;11.752;2023-07-30T10:29:15;2.97;;;1.30;;
78053;SDS011;67726;45.636;11.752;2023-07-30T10:32:02;4.53;;;1.50;;
78053;SDS011;67726;45.636;11.752;2023-07-30T10:34:49;5.32;;;1.40;;
78053;SDS011;67726;45.636;11.752;2023-07-30T10:37:17;3.90;;;1.63;;
78053;SDS011;67726;45.636;11.752;2023-07-30T10:39:47;3.67;;;1.30;;
78053;SDS011;67726;45.636;11.752;2023-07-30T10:42:13;3.78;;;1.60;;
78053;SDS011;67726;45.636;11.752;2023-07-30T10:44:43;3.45;;;1.52;;
78053;SDS011;67726;45.636;11.752;2023-07-30T10:47:09;4.10;;;1.45;;
78053;SDS011;67726;45.636;11.752;2023-07-30T10:49:39;4.22;;;1.80;;
78053;SDS011;67726;45.636;11.752;2023-07-30T10:52:09;4.50;;;1.67;;
78053;SDS011;67726;45.636;11.752;2023-07-30T10:54:35;4.80;;;1.48;;
78053;SDS011;67726;45.636;11.752;2023-07-30T10:57:04;4.43;;;1.70;;
78053;SDS011;67726;45.636;11.752;2023-07-30T10:59:36;3.90;;;1.33;;
78053;SDS011;67726;45.636;11.752;2023-07-30T11:02:03;4.47;;;1.63;;
78053;SDS011;67726;45.636;11.752;2023-07-30T11:04:33;3.87;;;1.60;;
78053;SDS011;67726;45.636;11.752;2023-07-30T11:06:59;3.92;;;1.63;;
78053;SDS011;67726;45.636;11.752;2023-07-30T11:09:26;4.18;;;1.65;;
78053;SDS011;67726;45.636;11.752;2023-07-30T11:11:53;3.83;;;1.67;;
78053;SDS011;67726;45.636;11.752;2023-07-30T11:14:24;3.80;;;1.75;;
78053;SDS011;67726;45.636;11.752;2023-07-30T11:16:56;5.20;;;1.95;;
78053;SDS011;67726;45.636;11.752;2023-07-30T11:19:26;4.20;;;1.77;;
78053;SDS011;67726;45.636;11.752;2023-07-30T11:21:53;4.10;;;1.70;;
78053;SDS011;67726;45.636;11.752;2023-07-30T11:24:20;4.83;;;1.80;;
78053;SDS011;67726;45.636;11.752;2023-07-30T11:26:59;5.18;;;1.80;;
78053;SDS011;67726;45.636;11.752;2023-07-30T11:29:26;4.25;;;1.73;;
78053;SDS011;67726;45.636;11.752;2023-07-30T11:31:52;4.15;;;1.65;;
78053;SDS011;67726;45.636;11.752;2023-07-30T11:34:22;4.30;;;1.90;;
78053;SDS011;67726;45.636;11.752;2023-07-30T11:36:48;4.20;;;1.70;;
78053;SDS011;67726;45.636;11.752;2023-07-30T11:39:14;5.68;;;2.00;;
78053;SDS011;67726;45.636;11.752;2023-07-30T11:41:41;5.55;;;2.00;;
78053;SDS011;67726;45.636;11.752;2023-07-30T11:44:07;4.88;;;2.00;;
78053;SDS011;67726;45.636;11.752;2023-07-30T11:46:33;5.37;;;2.00;;
78053;SDS011;67726;45.636;11.752;2023-07-30T11:49:11;4.88;;;2.13;;
78053;SDS011;67726;45.636;11.752;2023-07-30T11:51:39;5.40;;;1.80;;
78053;SDS011;67726;45.636;11.752;2023-07-30T11:54:06;5.00;;;2.10;;
78053;SDS011;67726;45.636;11.752;2023-07-30T11:56:33;5.13;;;2.10;;
78053;SDS011;67726;45.636;11.752;2023-07-30T11:59:00;4.30;;;1.80;;
78053;SDS011;67726;45.636;11.752;2023-07-30T12:01:35;4.63;;;2.15;;
78053;SDS011;67726;45.636;11.752;2023-07-30T12:04:05;5.55;;;2.25;;
78053;SDS011;67726;45.636;11.752;2023-07-30T12:06:38;4.72;;;2.15;;
78053;SDS011;67726;45.636;11.752;2023-07-30T12:09:10;4.27;;;1.90;;
78053;SDS011;67726;45.636;11.752;2023-07-30T12:14:18;4.15;;;2.00;;
78053;SDS011;67726;45.636;11.752;2023-07-30T12:16:45;5.47;;;2.00;;
78053;SDS011;67726;45.636;11.752;2023-07-30T12:19:10;4.65;;;1.85;;
78053;SDS011;67726;45.636;11.752;2023-07-30T12:21:36;4.67;;;1.80;;
78053;SDS011;67726;45.636;11.752;2023-07-30T12:24:02;5.00;;;2.10;;
78053;SDS011;67726;45.636;11.752;2023-07-30T12:26:28;6.93;;;2.20;;
78053;SDS011;67726;45.636;11.752;2023-07-30T12:28:54;4.97;;;2.10;;
78053;SDS011;67726;45.636;11.752;2023-07-30T12:31:20;4.40;;;2.25;;
78053;SDS011;67726;45.636;11.752;2023-07-30T12:33:46;4.30;;;1.90;;
78053;SDS011;67726;45.636;11.752;2023-07-30T12:36:11;4.80;;;2.28;;
78053;SDS011;67726;45.636;11.752;2023-07-30T12:38:37;5.67;;;2.07;;
78053;SDS011;67726;45.636;11.752;2023-07-30T12:41:02;5.13;;;1.92;;
78053;SDS011;67726;45.636;11.752;2023-07-30T12:43:28;4.23;;;2.13;;
78053;SDS011;67726;45.636;11.752;2023-07-30T12:45:54;5.13;;;1.97;;
78053;SDS011;67726;45.636;11.752;2023-07-30T12:48:19;4.77;;;2.20;;
78053;SDS011;67726;45.636;11.752;2023-07-30T12:50:45;5.57;;;2.53;;
78053;SDS011;67726;45.636;11.752;2023-07-30T12:53:11;4.78;;;2.17;;
78053;SDS011;67726;45.636;11.752;2023-07-30T12:55:36;4.30;;;2.03;;
78053;SDS011;67726;45.636;11.752;2023-07-30T12:58:03;4.57;;;2.03;;
78053;SDS011;67726;45.636;11.752;2023-07-30T13:00:29;4.30;;;1.90;;
78053;SDS011;67726;45.636;11.752;2023-07-30T13:02:55;5.80;;;2.03;;
78053;SDS011;67726;45.636;11.752;2023-07-30T13:05:22;4.55;;;2.05;;
78053;SDS011;67726;45.636;11.752;2023-07-30T13:07:47;5.25;;;2.20;;
78053;SDS011;67726;45.636;11.752;2023-07-30T13:10:13;7.17;;;2.10;;
78053;SDS011;67726;45.636;11.752;2023-07-30T13:12:40;4.55;;;1.90;;
78053;SDS011;67726;45.636;11.752;2023-07-30T13:15:06;4.72;;;2.00;;
78053;SDS011;67726;45.636;11.752;2023-07-30T13:17:32;4.50;;;2.10;;
78053;SDS011;67726;45.636;11.752;2023-07-30T13:19:58;5.20;;;2.10;;
78053;SDS011;67726;45.636;11.752;2023-07-30T13:22:23;6.07;;;2.30;;
78053;SDS011;67726;45.636;11.752;2023-07-30T13:24:49;5.88;;;2.20;;
78053;SDS011;67726;45.636;11.752;2023-07-30T13:27:16;4.63;;;1.80;;
78053;SDS011;67726;45.636;11.752;2023-07-30T13:29:43;6.00;;;2.40;;
78053;SDS011;67726;45.636;11.752;2023-07-30T13:32:08;4.57;;;2.20;;
78053;SDS011;67726;45.636;11.752;2023-07-30T13:34:34;5.00;;;2.03;;
78053;SDS011;67726;45.636;11.752;2023-07-30T13:37:00;4.20;;;1.95;;
78053;SDS011;67726;45.636;11.752;2023-07-30T13:39:26;4.77;;;1.97;;
78053;SDS011;67726;45.636;11.752;2023-07-30T13:41:52;5.15;;;2.30;;
78053;SDS011;67726;45.636;11.752;2023-07-30T13:44:18;4.32;;;1.90;;
78053;SDS011;67726;45.636;11.752;2023-07-30T13:46:44;4.80;;;1.87;;
78053;SDS011;67726;45.636;11.752;2023-07-30T13:49:10;5.43;;;2.22;;
78053;SDS011;67726;45.636;11.752;2023-07-30T13:51:35;4.53;;;1.90;;
78053;SDS011;67726;45.636;11.752;2023-07-30T13:54:01;4.50;;;2.20;;
78053;SDS011;67726;45.636;11.752;2023-07-30T13:56:27;4.63;;;1.87;;
78053;SDS011;67726;45.636;11.752;2023-07-30T13:58:54;4.82;;;2.13;;
78053;SDS011;67726;45.636;11.752;2023-07-30T14:01:20;4.60;;;2.13;;
78053;SDS011;67726;45.636;11.752;2023-07-30T14:03:46;5.68;;;2.40;;
78053;SDS011;67726;45.636;11.752;2023-07-30T14:06:11;4.73;;;2.10;;
78053;SDS011;67726;45.636;11.752;2023-07-30T14:08:38;5.03;;;2.20;;
78053;SDS011;67726;45.636;11.752;2023-07-30T14:11:03;4.47;;;2.00;;
78053;SDS011;67726;45.636;11.752;2023-07-30T14:13:29;4.53;;;2.13;;
78053;SDS011;67726;45.636;11.752;2023-07-30T14:15:55;5.22;;;2.35;;
78053;SDS011;67726;45.636;11.752;2023-07-30T14:18:21;5.03;;;2.40;;
78053;SDS011;67726;45.636;11.752;2023-07-30T14:20:50;5.53;;;2.40;;
78053;SDS011;67726;45.636;11.752;2023-07-30T14:23:17;4.90;;;2.42;;
78053;SDS011;67726;45.636;11.752;2023-07-30T14:25:43;5.07;;;2.20;;
78053;SDS011;67726;45.636;11.752;2023-07-30T14:28:09;5.17;;;2.13;;
78053;SDS011;67726;45.636;11.752;2023-07-30T14:30:35;6.37;;;2.40;;